Flight Track Log - Related Links

Times and Time Zones

All times are in EDT time to prevent confusion due to time zone crossing. See the N724AE flight status page for this flight to view local times or setup timezone preferences in your user account.

Time Position Orientation Groundspeed Altitude Reporting Facility
EDT Latitude Longitude Course Direction KTS MPH feet Rate Location/Type
Tue 09:59:06 PM 32.8667 -97.0333 84° East 171 197 2,900  Level Dallas / Fort Worth TRACON
Tue 10:00:00 PM 32.8167 -97.0333 180° South 202 232 4,800 2,158 Climbing Dallas / Fort Worth TRACON
Tue 10:01:00 PM 32.6833 -96.8471 90° East  Level FlightAware Approximate
Tue 10:01:00 PM 32.7667 -97.0000 151° Southeast 251 289 7,000  Level Dallas / Fort Worth TRACON
Tue 10:02:00 PM 32.6955 -96.7186 77° East  Level FlightAware Approximate
Tue 10:02:00 PM 32.7667 -96.9000 90° East 295 339 8,700  Level Dallas / Fort Worth TRACON
Tue 10:03:00 PM 32.7193 -96.5916 77° East  Level FlightAware Approximate
Tue 10:03:43 PM 32.7606 -96.7267 92° East 324 373 11,300  Level Fort Worth Center
Tue 10:04:00 PM 32.7378 -96.4635 84° East  Level FlightAware Approximate
Tue 10:04:44 PM 32.7597 -96.6081 90° East 345 397 12,300  Level Fort Worth Center
Tue 10:05:43 PM 32.7611 -96.4797 89° East 374 430 13,700 1,311 Climbing Fort Worth Center
Tue 10:06:43 PM 32.7622 -96.3486 89° East 386 444 14,900 1,450 Climbing Fort Worth Center
Tue 10:07:43 PM 32.7442 -96.2206 99° East 392 451 16,600 1,537 Climbing Fort Worth Center
Tue 10:08:44 PM 32.7222 -96.0922 101° East 392 451 18,000 1,636 Climbing Fort Worth Center
Tue 10:09:44 PM 32.7019 -95.9667 101° East 392 451 19,900 1,714 Climbing Fort Worth Center
Tue 10:10:43 PM 32.6817 -95.8336 100° East 392 451 21,400 1,563 Climbing Fort Worth Center
Tue 10:11:43 PM 32.6611 -95.7033 101° East 392 451 23,000 1,300 Climbing Fort Worth Center
Tue 10:12:43 PM 32.6611 -95.5628 90° East 412 474 24,000 600 Climbing Fort Worth Center
Tue 10:13:43 PM 32.6733 -95.4119 84° East 437 503 24,200 750 Climbing Fort Worth Center
Tue 10:14:43 PM 32.6797 -95.2783 87° East 451 519 25,500 1,339 Climbing Fort Worth Center
Tue 10:15:44 PM 32.6875 -95.1303 86° East 451 519 26,900 744 Climbing Fort Worth Center
Tue 10:16:44 PM 32.6908 -94.9819 88° East 451 519 27,000 50 Climbing Fort Worth Center
Tue 10:17:43 PM 32.6217 -94.8556 123° Southeast 429 494 27,000  Level Fort Worth Center
Tue 10:18:43 PM 32.5361 -94.7519 134° Southeast 423 487 27,000  Level Fort Worth Center
Tue 10:19:43 PM 32.4503 -94.6464 134° Southeast 434 499 27,000  Level Fort Worth Center
Tue 10:20:44 PM 32.3642 -94.5383 133° Southeast 448 516 27,000  Level Fort Worth Center
Tue 10:21:44 PM 32.2806 -94.4353 134° Southeast 443 510 27,000  Level Fort Worth Center
Tue 10:22:44 PM 32.1925 -94.3300 135° Southeast 443 510 27,000  Level Fort Worth Center
Tue 10:23:44 PM 32.1000 -94.2206 135° Southeast 438 504 27,000  Level Fort Worth Center
Tue 10:24:43 PM 32.0114 -94.1133 134° Southeast 444 511 27,000  Level Fort Worth Center
Tue 10:25:44 PM 31.9294 -94.0111 133° Southeast 450 518 27,000  Level Fort Worth Center
Tue 10:27:39 PM 31.7731 -93.8239 134° Southeast 449 517 27,000  Level Houston Center
Tue 10:28:40 PM 31.6875 -93.7194 134° Southeast 446 513 27,000  Level Houston Center
Tue 10:29:41 PM 31.5822 -93.5944 135° Southeast 446 513 27,000  Level Houston Center
Tue 10:30:42 PM 31.5019 -93.5011 135° Southeast 449 517 27,000  Level Houston Center
Tue 10:31:43 PM 31.4150 -93.3975 135° Southeast 448 516 27,000  Level Houston Center
Tue 10:32:44 PM 31.3278 -93.2944 135° Southeast 449 517 27,000  Level Houston Center
Tue 10:33:45 PM 31.2322 -93.1814 135° Southeast 449 517 27,000 -197 Level Houston Center
Tue 10:34:46 PM 31.1444 -93.0772 135° Southeast 449 517 26,600 -1,377 Descending Houston Center
Tue 10:35:47 PM 31.0542 -92.9728 135° Southeast 454 522 24,200 -2,508 Descending Houston Center
Tue 10:36:48 PM 30.9611 -92.8633 135° Southeast 445 512 21,500 -2,683 Descending Houston Center
Tue 10:37:50 PM 30.8806 -92.7678 134° Southeast 424 488 18,700 -2,732 Descending Houston Center
Tue 10:38:51 PM 30.8006 -92.6761 135° Southeast 412 474 15,900 -2,656 Descending Houston Center
Tue 10:39:52 PM 30.7247 -92.5875 135° Southeast 395 455 13,300 -2,115 Descending Houston Center
Tue 10:40:53 PM 30.6556 -92.5056 134° Southeast 367 422 11,600 -1,574 Descending Houston Center
Tue 10:41:54 PM 30.5947 -92.4350 135° Southeast 323 372 10,100 -1,426 Descending Houston Center
Tue 10:42:55 PM 30.5411 -92.3728 135° Southeast 285 328 8,700 -1,525 Descending Houston Center
Tue 10:43:56 PM 30.4894 -92.3136 135° Southeast 266 306 7,000 -1,672 Descending Houston Center
Tue 10:44:57 PM 30.4311 -92.2461 135° Southeast 251 289 5,300 -1,475 Descending Houston Center
Tue 10:45:58 PM 30.3892 -92.1939 133° Southeast 237 273 4,000 -1,377 Descending Houston Center
Tue 10:46:59 PM 30.3647 -92.1369 116° Southeast 224 258 2,500 -984 Descending Houston Center
Tue 10:48:00 PM 30.3506 -92.0739 105° East 213 245 2,000 -492 Descending Houston Center
Tue 10:49:00 PM 30.2639 -92.0226 131° Southeast  Level Estimated

Login

Don't have an account? Register now (free) for customized features, flight alerts, and more!